New Harrisburg, Ohio
Current Conditions -  °F | °C
As of 2:53 PM on Monday 26 Jan 2015 (Local Time) from KPHD Reporting Station
Overcast Overcast  
Wind Chill: 19°   Ceiling: 1800
Heat Index: 27°   Visibility: 10mi
Dew Point: 19°   Wind: 8mph
Humidity: 72%   Direction: 320°NW
Pressure: 29.78"   Gusts: NA
Location:  40.5653°N, 81.0724°W
Report Text: KPHD 261953Z AUTO 32007KT 10SM OVC018 M03/M07 A2978 RMK AO2 SLP094 T10281072
Loading
Personal Weather Stations






























Interactive Weather Map New forecast layout! Learn more

10-Day Weather Forecast

Advertisements
Track Severe Weather on mobile